• Join FlightAware (Why Join?)
  • Login
  • US Flag 
04:12AM EDT


 

Airport Tracker/Info


-or-


 

Live Flight TrackerFlight Track Log ✈ UCA4823 ✈ 07-May-2012 ✈ KSYR - KEWR

Flight Track Log - Related Links

Times and Time Zones

All times are in EDT time to prevent confusion due to time zone crossing. See the UCA4823 flight status page for this flight to view local times or setup timezone preferences in your user account.

Time Position Orientation Groundspeed Altitude Reporting Facility
EDT Latitude Longitude Course Direction KTS MPH feet Rate Location/Type
06:45AM 43.1086 -76.1036 87° East 124 143 1,100  Level Boston Center
06:46AM 43.1097 -76.0694 129° Southeast 129 148 2,100 1,320 Climbing Boston Center
06:47AM 43.0839 -76.0253 171° South 171 197 3,400 1,380 Climbing Boston Center
06:48AM 43.0300 -76.0136 161° South 182 209 5,000 1,500 Climbing Boston Center
06:49AM 42.9744 -75.9878 162° South 188 216 6,800 1,440 Climbing Boston Center
06:50AM 42.9231 -75.9647 143° Southeast 193 222 8,200 1,380 Climbing Boston Center
06:51AM 42.8767 -75.9167 143° Southeast 198 228 9,600 1,440 Climbing Boston Center
06:52AM 42.8281 -75.8658 146° Southeast 210 242 11,100 1,380 Climbing Boston Center
06:53AM 42.7756 -75.8178 153° Southeast 215 247 12,400 1,200 Climbing Boston Center
06:54AM 42.7183 -75.7778 155° Southeast 226 260 13,600 1,200 Climbing Boston Center
06:55AM 42.6608 -75.7408 152° Southeast 226 260 14,800 720 Climbing Boston Center
06:56AM 42.5975 -75.6953 153° Southeast 238 274 15,100 60 Climbing Boston Center
06:57AM 42.5261 -75.6464 152° Southeast 262 302 15,000 -60 Descending Boston Center
06:58AM 42.4506 -75.5917 153° Southeast 287 330 15,000  Level Boston Center
06:59AM 42.3767 -75.5403 153° Southeast 303 349 15,000  Level Boston Center
07:00AM 42.3011 -75.4889 150° Southeast 303 349 15,100  Climbing Boston Center
07:01AM 42.2275 -75.4319 152° Southeast 303 349 15,100  Level Boston Center
07:02AM 42.1558 -75.3808 152° Southeast 303 349 15,100 -60 Level Boston Center
07:03AM 42.0842 -75.3300 129° Southeast 298 343 15,000 -60 Descending Boston Center
07:04AM 42.0342 -75.2467 115° Southeast 281 323 15,000 -240 Level Boston Center
07:05AM 41.9992 -75.1472 117° Southeast 274 315 14,600 -660 Descending Boston Center
07:06AM 41.9597 -75.0450 137° Southeast 303 349 13,800 -900 Descending Boston Center
07:07AM 41.8989 -74.9700 152° Southeast 303 349 12,800 -1,200 Descending Boston Center
07:08AM 41.8253 -74.9169 149° Southeast 301 346 11,400 -1,320 Descending Boston Center
07:09AM 41.7575 -74.8614 150° Southeast 296 341 10,200 -1,260 Descending Boston Center
07:10AM 41.6900 -74.8086 149° Southeast 286 329 8,900 -1,200 Descending Boston Center
07:11AM 41.6242 -74.7564 150° Southeast 279 321 7,800 -960 Descending Boston Center
07:12AM 41.5586 -74.7067 165° South 274 315 7,000 -720 Descending Boston Center
07:13AM 41.4903 -74.6822 167° South 261 300 6,400 -420 Descending Boston Center
07:15AM 41.3833 -74.6500 169° South 245 282 6,000 -180 Descending New York TRACON
07:16AM 41.3167 -74.6333 166° South 240 276 6,000 -180 Level New York TRACON
07:16AM 41.2667 -74.6167 143° Southeast 247 284 5,700 -540 Descending New York TRACON
07:18AM 41.2000 -74.5500 124° Southeast 258 297 5,000 -360 Descending New York TRACON
07:18AM 41.1667 -74.4833 143° Southeast 247 284 5,000  Level New York TRACON
07:19AM 41.1167 -74.4333 135° Southeast 242 278 5,000  Level New York TRACON
07:20AM 41.0667 -74.3667 124° Southeast 241 277 5,000 -120 Level New York TRACON
07:21AM 41.0333 -74.3000 135° Southeast 242 278 4,800 -540 Descending New York TRACON
07:22AM 40.9833 -74.2333 143° Southeast 253 291 4,000 -480 Descending New York TRACON
07:23AM 40.9333 -74.1833 135° Southeast 246 283 4,000 -480 Level New York TRACON
07:24AM 40.8833 -74.1167 143° Southeast 232 267 3,100 -540 Descending New York TRACON
07:25AM 40.8500 -74.0833 194° South 200 230 3,000 -480 Descending New York TRACON
07:26AM 40.8000 -74.1000 207° Southwest 185 213 2,200 -900 Descending New York TRACON
07:27AM 40.7500 -74.1333 201° Southwest 165 190 1,300 -900 Descending New York TRACON
07:28AM 40.7167 -74.1500 201° Southwest 125 144 600 -780 Descending New York TRACON
07:35AM 40.6833 -74.1667 351° North  Level FlightAware Approximate
07:36AM 40.7548 -74.1822 351° North  Level Estimated